createdAt,value
2019-01-21T00:00:29.579Z,966.01
2019-01-21T00:01:29.557Z,966.03
2019-01-21T00:02:29.570Z,965.99
2019-01-21T00:03:29.531Z,965.96
2019-01-21T00:04:29.520Z,965.98
2019-01-21T00:05:29.510Z,965.97
2019-01-21T00:06:29.505Z,965.98
2019-01-21T00:07:29.489Z,966.03
2019-01-21T00:08:29.484Z,965.95
2019-01-21T00:09:29.471Z,966.04
2019-01-21T00:10:29.456Z,965.97
2019-01-21T00:11:29.471Z,966.03
2019-01-21T00:12:29.437Z,965.99
2019-01-21T00:13:29.427Z,966.03
2019-01-21T00:14:29.425Z,966.07
2019-01-21T00:15:29.436Z,966.05
2019-01-21T00:16:29.403Z,966.11
2019-01-21T00:17:29.398Z,966.07
2019-01-21T00:18:29.367Z,966.08
2019-01-21T00:19:29.352Z,966.04
2019-01-21T00:20:29.353Z,966.10
2019-01-21T00:21:29.353Z,966.11
2019-01-21T00:22:29.319Z,966.10
2019-01-21T00:23:29.312Z,966.08
2019-01-21T00:24:29.299Z,966.09
2019-01-21T00:25:29.295Z,966.17
2019-01-21T00:26:29.303Z,966.14
2019-01-21T00:27:29.268Z,966.12
2019-01-21T00:28:29.274Z,966.17
2019-01-21T00:29:29.310Z,966.20
2019-01-21T00:30:29.247Z,966.19
2019-01-21T00:31:29.254Z,966.16
2019-01-21T00:32:29.221Z,966.17
2019-01-21T00:33:29.218Z,966.16
2019-01-21T00:34:29.202Z,966.17
2019-01-21T00:35:29.209Z,966.15
2019-01-21T00:36:29.195Z,966.17
2019-01-21T00:37:29.196Z,966.20
2019-01-21T00:38:29.157Z,966.16
2019-01-21T00:39:29.175Z,966.12
2019-01-21T00:40:29.127Z,966.15
2019-01-21T00:41:29.132Z,966.17
2019-01-21T00:42:29.115Z,966.24
2019-01-21T00:43:29.118Z,966.15
2019-01-21T00:44:29.086Z,966.18
2019-01-21T00:45:29.067Z,966.18
2019-01-21T00:46:29.065Z,966.21
2019-01-21T00:47:30.239Z,966.16
2019-01-21T00:48:29.077Z,966.22
2019-01-21T00:49:29.047Z,966.18
2019-01-21T00:50:29.049Z,966.22
2019-01-21T00:51:29.036Z,966.20
2019-01-21T00:52:29.017Z,966.20
2019-01-21T00:53:28.997Z,966.16
2019-01-21T00:54:28.985Z,966.21
2019-01-21T00:55:28.966Z,966.20
2019-01-21T00:56:28.978Z,966.10
2019-01-21T00:57:28.957Z,966.16
2019-01-21T00:58:28.935Z,966.20
2019-01-21T00:59:28.918Z,966.17
2019-01-21T01:00:28.909Z,966.19
2019-01-21T01:01:28.917Z,966.15
2019-01-21T01:02:28.881Z,966.17
2019-01-21T01:03:28.930Z,966.16
2019-01-21T01:04:28.879Z,966.12
2019-01-21T01:05:28.850Z,966.14
2019-01-21T01:06:28.841Z,966.13
2019-01-21T01:07:28.833Z,966.16
2019-01-21T01:08:28.818Z,966.12
2019-01-21T01:09:28.833Z,966.11
2019-01-21T01:10:28.807Z,966.16
2019-01-21T01:11:28.800Z,966.18
2019-01-21T01:12:28.776Z,966.13
2019-01-21T01:13:28.773Z,966.13
2019-01-21T01:14:28.762Z,966.15
2019-01-21T01:15:28.769Z,966.13
2019-01-21T01:16:28.764Z,966.12
2019-01-21T01:17:28.723Z,966.17
2019-01-21T01:18:28.713Z,966.19
2019-01-21T01:19:28.718Z,966.18
2019-01-21T01:20:28.703Z,966.13
2019-01-21T01:21:28.725Z,966.11
2019-01-21T01:22:28.666Z,966.11
2019-01-21T01:23:28.665Z,966.18
2019-01-21T01:24:28.649Z,966.14
2019-01-21T01:25:28.637Z,966.14
2019-01-21T01:26:28.628Z,966.17
2019-01-21T01:27:28.673Z,966.14
2019-01-21T01:28:28.602Z,966.13
2019-01-21T01:29:28.595Z,966.18
2019-01-21T01:30:28.654Z,966.20
2019-01-21T01:31:28.568Z,966.15
2019-01-21T01:32:28.573Z,966.21
2019-01-21T01:33:28.583Z,966.13
2019-01-21T01:34:28.535Z,966.19
2019-01-21T01:35:28.538Z,966.15
2019-01-21T01:36:28.516Z,966.07
2019-01-21T01:37:28.509Z,966.10
2019-01-21T01:38:28.496Z,966.12
2019-01-21T01:39:28.489Z,966.08
2019-01-21T01:40:28.493Z,966.11
2019-01-21T01:41:28.496Z,966.12
2019-01-21T01:42:28.446Z,966.09
2019-01-21T01:43:28.436Z,966.11
2019-01-21T01:44:28.422Z,966.15
2019-01-21T01:45:28.411Z,966.10
2019-01-21T01:46:28.418Z,966.08
2019-01-21T01:47:28.404Z,966.11
2019-01-21T01:48:28.399Z,966.07
2019-01-21T01:49:28.375Z,966.09
2019-01-21T01:50:28.369Z,966.04
2019-01-21T01:51:28.433Z,966.12
2019-01-21T01:52:28.339Z,966.07
2019-01-21T01:53:28.328Z,966.09
2019-01-21T01:54:28.317Z,966.08
2019-01-21T01:55:28.310Z,966.08
2019-01-21T01:56:28.309Z,966.10
2019-01-21T01:57:28.312Z,966.07
2019-01-21T01:58:28.300Z,966.04
2019-01-21T01:59:28.261Z,966.05
2019-01-21T02:00:28.255Z,966.06
2019-01-21T02:01:28.243Z,966.03
2019-01-21T02:02:28.239Z,965.99
2019-01-21T02:03:28.239Z,965.97
2019-01-21T02:04:28.249Z,966.02
2019-01-21T02:05:28.194Z,965.98
2019-01-21T02:06:28.185Z,966.03
2019-01-21T02:07:28.185Z,965.97
2019-01-21T02:08:28.165Z,966.03
2019-01-21T02:09:28.160Z,965.99
2019-01-21T02:10:28.168Z,965.98
2019-01-21T02:11:28.165Z,966.01
2019-01-21T02:12:28.145Z,965.97
2019-01-21T02:13:28.108Z,965.96
2019-01-21T02:14:28.100Z,966.02
2019-01-21T02:15:28.086Z,965.95
2019-01-21T02:16:28.075Z,965.98
2019-01-21T02:17:28.095Z,965.91
2019-01-21T02:18:28.067Z,965.89
2019-01-21T02:19:28.071Z,965.90
2019-01-21T02:20:28.034Z,965.90
2019-01-21T02:21:28.020Z,965.94
2019-01-21T02:22:28.008Z,965.95
2019-01-21T02:23:28.041Z,965.97
2019-01-21T02:24:27.988Z,965.88
2019-01-21T02:25:27.986Z,965.88
2019-01-21T02:26:27.990Z,965.90
2019-01-21T02:27:27.958Z,965.96
2019-01-21T02:28:27.967Z,965.97
2019-01-21T02:29:27.993Z,965.95
2019-01-21T02:30:27.921Z,965.97
2019-01-21T02:31:28.031Z,965.97
2019-01-21T02:32:27.896Z,965.95
2019-01-21T02:33:27.894Z,965.97
2019-01-21T02:34:27.889Z,965.92
2019-01-21T02:35:27.890Z,965.97
2019-01-21T02:36:27.858Z,965.92
2019-01-21T02:37:27.851Z,965.96
2019-01-21T02:38:27.843Z,965.89
2019-01-21T02:39:27.847Z,965.88
2019-01-21T02:40:27.831Z,965.93
2019-01-21T02:41:27.805Z,965.92
2019-01-21T02:42:27.794Z,965.90
2019-01-21T02:43:27.807Z,965.91
2019-01-21T02:44:27.789Z,965.96
2019-01-21T02:45:27.764Z,965.91
2019-01-21T02:46:27.773Z,965.96
2019-01-21T02:47:27.746Z,965.94
2019-01-21T02:48:27.729Z,965.92
2019-01-21T02:49:27.714Z,965.96
2019-01-21T02:50:27.725Z,965.92
2019-01-21T02:51:27.694Z,965.90
2019-01-21T02:52:27.706Z,965.87
2019-01-21T02:53:27.689Z,965.92
2019-01-21T02:54:27.668Z,965.94
2019-01-21T02:55:27.671Z,965.91
2019-01-21T02:56:27.643Z,965.95
2019-01-21T02:57:27.626Z,965.92
2019-01-21T02:58:27.633Z,965.94
2019-01-21T02:59:27.635Z,965.96
2019-01-21T03:00:27.651Z,965.88
2019-01-21T03:01:27.602Z,965.94
2019-01-21T03:02:27.590Z,965.92
2019-01-21T03:03:27.588Z,965.87
2019-01-21T03:04:27.566Z,965.92
2019-01-21T03:05:27.543Z,965.93
2019-01-21T03:06:27.538Z,965.98
2019-01-21T03:07:27.536Z,965.91
2019-01-21T03:08:27.519Z,965.93
2019-01-21T03:09:27.535Z,965.98
2019-01-21T03:10:27.499Z,965.99
2019-01-21T03:11:27.501Z,965.98
2019-01-21T03:12:27.480Z,965.98
2019-01-21T03:13:27.548Z,965.93
2019-01-21T03:14:27.522Z,965.94
2019-01-21T03:15:27.491Z,965.96
2019-01-21T03:16:27.477Z,965.95
2019-01-21T03:17:27.436Z,965.96
2019-01-21T03:18:27.422Z,965.99
2019-01-21T03:19:27.388Z,965.99
2019-01-21T03:20:27.390Z,965.97
2019-01-21T03:21:27.378Z,966.01
2019-01-21T03:22:27.360Z,965.98
2019-01-21T03:23:27.383Z,965.98
2019-01-21T03:24:27.353Z,965.99
2019-01-21T03:25:27.325Z,965.99
2019-01-21T03:26:27.321Z,966.01
2019-01-21T03:27:27.324Z,966.01
2019-01-21T03:28:27.295Z,966.01
2019-01-21T03:29:27.337Z,966.03
2019-01-21T03:30:27.306Z,965.95
2019-01-21T03:31:27.263Z,966.01
2019-01-21T03:32:27.283Z,966.03
2019-01-21T03:33:27.235Z,966.03
2019-01-21T03:34:27.225Z,966.02
2019-01-21T03:35:27.218Z,966.07
2019-01-21T03:36:27.230Z,966.01
2019-01-21T03:37:27.341Z,965.98
2019-01-21T03:38:27.192Z,965.99
2019-01-21T03:39:27.191Z,966.05
2019-01-21T03:40:27.160Z,966.04
2019-01-21T03:41:27.146Z,966.06
2019-01-21T03:42:27.165Z,966.06
2019-01-21T03:43:27.134Z,966.05
2019-01-21T03:44:27.150Z,966.01
2019-01-21T03:45:27.109Z,966.02
2019-01-21T03:46:27.093Z,966.05
2019-01-21T03:47:27.100Z,966.08
2019-01-21T03:48:27.106Z,966.07
2019-01-21T03:49:27.089Z,966.08
2019-01-21T03:50:27.053Z,966.06
2019-01-21T03:51:27.042Z,966.07
2019-01-21T03:52:27.025Z,966.06
2019-01-21T03:53:27.053Z,966.08
2019-01-21T03:54:27.042Z,966.06
2019-01-21T03:55:26.998Z,966.12
2019-01-21T03:56:26.990Z,966.11
2019-01-21T03:57:26.982Z,966.17
2019-01-21T03:58:26.966Z,966.09
2019-01-21T03:59:26.959Z,966.06
2019-01-21T04:00:26.941Z,966.03
2019-01-21T04:01:26.947Z,966.07
2019-01-21T04:02:26.923Z,966.09
2019-01-21T04:03:26.911Z,966.12
2019-01-21T04:04:26.940Z,966.10
2019-01-21T04:05:26.893Z,966.07
2019-01-21T04:06:26.895Z,966.07
2019-01-21T04:07:26.860Z,966.05
2019-01-21T04:08:26.871Z,966.11
2019-01-21T04:09:26.839Z,966.08
2019-01-21T04:10:26.862Z,966.04
2019-01-21T04:11:26.848Z,966.08
2019-01-21T04:12:26.807Z,966.06
2019-01-21T04:13:26.794Z,966.07
2019-01-21T04:14:26.831Z,966.06
2019-01-21T04:15:26.790Z,966.05
2019-01-21T04:16:26.762Z,966.04
2019-01-21T04:17:26.772Z,966.02
2019-01-21T04:18:26.748Z,966.03
2019-01-21T04:19:26.732Z,966.03
2019-01-21T04:20:26.746Z,966.04
2019-01-21T04:21:26.712Z,966.04
2019-01-21T04:22:26.694Z,966.06
2019-01-21T04:23:26.688Z,966.03
2019-01-21T04:24:26.677Z,965.99
2019-01-21T04:25:26.664Z,966.03
2019-01-21T04:26:26.692Z,966.01
2019-01-21T04:27:26.645Z,966.07
2019-01-21T04:28:26.639Z,966.01
2019-01-21T04:29:26.648Z,966.06
2019-01-21T04:30:26.620Z,965.98
2019-01-21T04:31:26.645Z,966.03
2019-01-21T04:32:26.603Z,966.04
2019-01-21T04:33:26.595Z,966.08
2019-01-21T04:34:26.578Z,966.06
2019-01-21T04:35:26.554Z,966.08
2019-01-21T04:36:26.622Z,966.04
2019-01-21T04:37:26.535Z,966.06
2019-01-21T04:38:26.530Z,966.08
2019-01-21T04:39:26.555Z,966.07
2019-01-21T04:40:26.519Z,966.10
2019-01-21T04:41:26.513Z,966.11
2019-01-21T04:42:26.482Z,966.10
2019-01-21T04:43:26.547Z,966.06
2019-01-21T04:44:26.478Z,966.02
2019-01-21T04:45:26.487Z,966.05
2019-01-21T04:46:26.447Z,966.08
2019-01-21T04:47:26.441Z,966.07
2019-01-21T04:48:32.909Z,966.04
2019-01-21T04:49:27.401Z,966.09
2019-01-21T04:50:26.390Z,966.12
2019-01-21T04:51:26.402Z,966.09
2019-01-21T04:52:26.382Z,966.09
2019-01-21T04:53:26.367Z,966.09
2019-01-21T04:54:26.357Z,966.09
2019-01-21T04:55:26.343Z,966.13
2019-01-21T04:56:26.328Z,966.12
2019-01-21T04:57:26.334Z,966.09
2019-01-21T04:58:26.308Z,966.11
2019-01-21T04:59:26.297Z,966.12
2019-01-21T05:00:26.292Z,966.14
2019-01-21T05:01:26.281Z,966.11
2019-01-21T05:02:26.300Z,966.11
2019-01-21T05:03:26.260Z,966.05
2019-01-21T05:04:26.361Z,966.09
2019-01-21T05:05:26.245Z,966.08
2019-01-21T05:06:26.229Z,966.10
2019-01-21T05:07:26.270Z,966.10
2019-01-21T05:08:26.214Z,966.14
2019-01-21T05:09:26.198Z,966.13
2019-01-21T05:10:26.175Z,966.13
2019-01-21T05:11:26.187Z,966.13
2019-01-21T05:12:26.165Z,966.14
2019-01-21T05:13:26.164Z,966.13
2019-01-21T05:14:26.145Z,966.16
2019-01-21T05:15:26.129Z,966.13
2019-01-21T05:16:26.189Z,966.11
2019-01-21T05:17:26.107Z,966.15
2019-01-21T05:18:26.100Z,966.16
2019-01-21T05:19:26.117Z,966.19
2019-01-21T05:20:26.071Z,966.16
2019-01-21T05:21:26.057Z,966.10
2019-01-21T05:22:26.103Z,966.14
2019-01-21T05:23:26.089Z,966.10
2019-01-21T05:24:26.044Z,966.09
2019-01-21T05:25:26.254Z,966.12
2019-01-21T05:26:26.003Z,966.12
2019-01-21T05:27:25.993Z,966.10
2019-01-21T05:28:25.986Z,966.17
2019-01-21T05:29:26.033Z,966.15
2019-01-21T05:30:25.959Z,966.18
2019-01-21T05:31:25.953Z,966.17
2019-01-21T05:32:25.963Z,966.17
2019-01-21T05:33:25.933Z,966.10
2019-01-21T05:34:25.940Z,966.18
2019-01-21T05:35:25.906Z,966.14
2019-01-21T05:36:25.912Z,966.16
2019-01-21T05:37:25.895Z,966.19
2019-01-21T05:38:25.874Z,966.16
2019-01-21T05:39:25.869Z,966.20
2019-01-21T05:40:25.898Z,966.15
2019-01-21T05:41:25.841Z,966.16
2019-01-21T05:42:25.828Z,966.17
2019-01-21T05:43:25.861Z,966.19
2019-01-21T05:44:25.804Z,966.16
2019-01-21T05:45:25.801Z,966.18
2019-01-21T05:46:25.796Z,966.14
2019-01-21T05:47:25.783Z,966.21
2019-01-21T05:48:25.848Z,966.21
2019-01-21T05:49:25.761Z,966.20
2019-01-21T05:50:25.753Z,966.21
2019-01-21T05:51:25.725Z,966.24
2019-01-21T05:52:25.726Z,966.26
2019-01-21T05:53:25.716Z,966.27
2019-01-21T05:54:25.694Z,966.28
2019-01-21T05:55:25.758Z,966.26
2019-01-21T05:56:25.677Z,966.28
2019-01-21T05:57:25.664Z,966.26
2019-01-21T05:58:25.660Z,966.36
2019-01-21T05:59:25.663Z,966.35
2019-01-21T06:00:25.628Z,966.38
2019-01-21T06:01:25.647Z,966.35
2019-01-21T06:02:25.613Z,966.38
2019-01-21T06:03:25.600Z,966.39
2019-01-21T06:04:25.610Z,966.42
2019-01-21T06:05:25.571Z,966.44
2019-01-21T06:06:25.619Z,966.47
2019-01-21T06:07:25.558Z,966.46
2019-01-21T06:08:25.592Z,966.44
2019-01-21T06:09:25.595Z,966.51
2019-01-21T06:10:25.547Z,966.49
2019-01-21T06:11:25.525Z,966.46
2019-01-21T06:12:25.560Z,966.55
2019-01-21T06:13:25.505Z,966.53
2019-01-21T06:14:25.491Z,966.54
2019-01-21T06:15:25.475Z,966.56
2019-01-21T06:16:25.581Z,966.58
2019-01-21T06:17:25.457Z,966.57
2019-01-21T06:18:25.427Z,966.57
2019-01-21T06:19:25.436Z,966.57
2019-01-21T06:20:25.419Z,966.51
2019-01-21T06:21:25.414Z,966.55
2019-01-21T06:22:25.418Z,966.54
2019-01-21T06:23:25.375Z,966.51
2019-01-21T06:24:25.362Z,966.53
2019-01-21T06:25:25.405Z,966.55
2019-01-21T06:26:25.350Z,966.56
2019-01-21T06:27:25.339Z,966.54
2019-01-21T06:28:25.350Z,966.58
2019-01-21T06:29:25.321Z,966.59
2019-01-21T06:30:25.307Z,966.54
2019-01-21T06:31:25.297Z,966.52
2019-01-21T06:32:25.299Z,966.55
2019-01-21T06:33:25.284Z,966.55
2019-01-21T06:34:25.259Z,966.57
2019-01-21T06:35:25.264Z,966.65
2019-01-21T06:36:25.234Z,966.54
2019-01-21T06:37:25.247Z,966.60
2019-01-21T06:38:25.212Z,966.64
2019-01-21T06:39:25.216Z,966.68
2019-01-21T06:40:25.233Z,966.71
2019-01-21T06:41:25.195Z,966.70
2019-01-21T06:42:25.172Z,966.71
2019-01-21T06:43:25.160Z,966.68
2019-01-21T06:44:25.153Z,966.74
2019-01-21T06:45:25.136Z,966.73
2019-01-21T06:46:25.135Z,966.71
2019-01-21T06:47:25.170Z,966.74
2019-01-21T06:48:25.121Z,966.70
2019-01-21T06:49:25.100Z,966.73
2019-01-21T06:50:25.081Z,966.69
2019-01-21T06:51:25.085Z,966.74
2019-01-21T06:52:25.058Z,966.74
2019-01-21T06:53:25.064Z,966.74
2019-01-21T06:54:25.042Z,966.75
2019-01-21T06:55:25.067Z,966.74
2019-01-21T06:56:25.020Z,966.78
2019-01-21T06:57:25.011Z,966.75
2019-01-21T06:58:24.994Z,966.77
2019-01-21T06:59:24.994Z,966.79
2019-01-21T07:00:24.985Z,966.73
2019-01-21T07:01:24.967Z,966.80
2019-01-21T07:02:25.022Z,966.79
2019-01-21T07:03:24.942Z,966.79
2019-01-21T07:04:24.933Z,966.82
2019-01-21T07:05:24.923Z,966.84
2019-01-21T07:06:24.908Z,966.85
2019-01-21T07:07:25.963Z,966.88
2019-01-21T07:08:24.887Z,966.78
2019-01-21T07:09:24.872Z,966.85
2019-01-21T07:10:24.897Z,966.84
2019-01-21T07:11:24.852Z,966.86
2019-01-21T07:12:24.860Z,966.84
2019-01-21T07:13:24.853Z,966.84
2019-01-21T07:14:24.822Z,966.89
2019-01-21T07:15:24.814Z,966.92
2019-01-21T07:16:24.822Z,966.85
2019-01-21T07:17:24.791Z,966.87
2019-01-21T07:18:26.072Z,966.89
2019-01-21T07:19:24.821Z,966.89
2019-01-21T07:20:24.757Z,966.86
2019-01-21T07:21:24.757Z,966.90
2019-01-21T07:22:24.730Z,966.92
2019-01-21T07:23:24.747Z,966.95
2019-01-21T07:24:24.704Z,966.95
2019-01-21T07:25:24.696Z,966.97
2019-01-21T07:26:24.748Z,966.96
2019-01-21T07:27:24.683Z,966.99
2019-01-21T07:28:24.662Z,966.93
2019-01-21T07:29:24.659Z,966.92
2019-01-21T07:30:24.645Z,966.91
2019-01-21T07:31:24.649Z,966.96
2019-01-21T07:32:24.647Z,966.95
2019-01-21T07:33:24.636Z,966.96
2019-01-21T07:34:24.611Z,966.98
2019-01-21T07:35:24.666Z,966.96
2019-01-21T07:36:24.608Z,966.94
2019-01-21T07:37:24.584Z,966.97
2019-01-21T07:38:24.557Z,966.92
2019-01-21T07:39:24.544Z,966.91
2019-01-21T07:40:24.620Z,966.98
2019-01-21T07:41:24.536Z,966.91
2019-01-21T07:42:24.530Z,966.88
2019-01-21T07:43:24.518Z,966.93
2019-01-21T07:44:24.584Z,966.93
2019-01-21T07:45:24.493Z,966.88
2019-01-21T07:46:24.512Z,966.93
2019-01-21T07:47:24.471Z,967.00
2019-01-21T07:48:24.453Z,966.94
2019-01-21T07:49:24.465Z,966.97
2019-01-21T07:50:24.492Z,966.97
2019-01-21T07:51:24.429Z,966.94
2019-01-21T07:52:24.426Z,966.97
2019-01-21T07:53:24.438Z,966.86
2019-01-21T07:54:24.417Z,966.90
2019-01-21T07:55:24.382Z,966.95
2019-01-21T07:56:24.383Z,966.92
2019-01-21T07:57:24.365Z,966.95
2019-01-21T07:58:24.339Z,966.95
2019-01-21T07:59:24.328Z,966.97
2019-01-21T08:00:24.397Z,966.98
2019-01-21T08:01:24.312Z,967.01
2019-01-21T08:02:24.323Z,966.97
2019-01-21T08:03:24.292Z,967.03
2019-01-21T08:04:24.297Z,966.99
2019-01-21T08:05:24.336Z,966.99
2019-01-21T08:06:24.280Z,966.96
2019-01-21T08:07:24.289Z,967.02
2019-01-21T08:08:24.293Z,967.05
2019-01-21T08:09:24.256Z,967.00
2019-01-21T08:10:24.214Z,967.01
2019-01-21T08:11:24.212Z,967.00
2019-01-21T08:12:24.206Z,967.01
2019-01-21T08:13:24.184Z,966.98
2019-01-21T08:14:24.171Z,967.07
2019-01-21T08:15:26.287Z,967.01
2019-01-21T08:16:24.154Z,967.04
2019-01-21T08:17:24.152Z,967.05
2019-01-21T08:18:24.170Z,967.12
2019-01-21T08:19:24.591Z,967.03
2019-01-21T08:20:24.137Z,967.04
2019-01-21T08:21:24.103Z,967.02
2019-01-21T08:22:24.089Z,967.04
2019-01-21T08:23:24.137Z,967.09
2019-01-21T08:24:24.064Z,967.12
2019-01-21T08:25:24.085Z,967.04
2019-01-21T08:26:24.061Z,967.12
2019-01-21T08:27:24.036Z,967.09
2019-01-21T08:28:24.023Z,967.14
2019-01-21T08:29:24.035Z,967.07
2019-01-21T08:30:24.012Z,967.04
2019-01-21T08:31:23.999Z,967.10
2019-01-21T08:32:23.978Z,967.07
2019-01-21T08:33:24.007Z,967.05
2019-01-21T08:34:23.945Z,967.05
2019-01-21T08:35:23.939Z,967.03
2019-01-21T08:36:23.976Z,967.05
2019-01-21T08:37:23.943Z,967.14
2019-01-21T08:38:23.910Z,967.12
2019-01-21T08:39:23.900Z,967.11
2019-01-21T08:40:23.890Z,967.15
2019-01-21T08:41:23.879Z,967.10
2019-01-21T08:42:23.873Z,967.13
2019-01-21T08:43:23.900Z,967.08
2019-01-21T08:44:23.853Z,967.10
2019-01-21T08:45:23.834Z,967.12
2019-01-21T08:46:23.813Z,967.18
2019-01-21T08:47:23.832Z,967.13
2019-01-21T08:48:23.801Z,967.12
2019-01-21T08:49:23.790Z,967.15
2019-01-21T08:50:23.778Z,967.13
2019-01-21T08:51:23.786Z,967.09
2019-01-21T08:52:23.811Z,967.14
2019-01-21T08:53:23.750Z,967.14
2019-01-21T08:54:23.746Z,967.15
2019-01-21T08:55:23.765Z,967.13
2019-01-21T08:56:23.814Z,967.19
2019-01-21T08:57:23.694Z,967.14
2019-01-21T08:58:23.767Z,967.17
2019-01-21T08:59:23.704Z,967.13
2019-01-21T09:00:23.703Z,967.15
2019-01-21T09:01:23.654Z,967.16
2019-01-21T09:02:23.872Z,967.11
2019-01-21T09:03:23.643Z,967.15
2019-01-21T09:04:23.640Z,967.15
2019-01-21T09:05:23.607Z,967.18
2019-01-21T09:06:23.637Z,967.22
2019-01-21T09:07:23.592Z,967.23
2019-01-21T09:08:23.577Z,967.23
2019-01-21T09:09:23.623Z,967.22
2019-01-21T09:10:23.565Z,967.22
2019-01-21T09:11:23.599Z,967.25
2019-01-21T09:12:23.566Z,967.27
2019-01-21T09:13:23.526Z,967.27
2019-01-21T09:14:23.513Z,967.24
2019-01-21T09:15:23.572Z,967.25
2019-01-21T09:16:23.500Z,967.24
2019-01-21T09:17:23.483Z,967.24
2019-01-21T09:18:23.528Z,967.28
2019-01-21T09:19:23.458Z,967.33
2019-01-21T09:20:23.484Z,967.29
2019-01-21T09:21:23.437Z,967.21
2019-01-21T09:22:23.422Z,967.26
2019-01-21T09:23:23.519Z,967.24
2019-01-21T09:24:23.404Z,967.25
2019-01-21T09:25:23.431Z,967.26
2019-01-21T09:26:23.382Z,967.28
2019-01-21T09:27:23.375Z,967.22
2019-01-21T09:28:23.366Z,967.28
2019-01-21T09:29:23.372Z,967.33
2019-01-21T09:30:23.354Z,967.27
2019-01-21T09:31:23.335Z,967.31
2019-01-21T09:32:23.352Z,967.28
2019-01-21T09:33:23.334Z,967.30
2019-01-21T09:34:23.288Z,967.39
2019-01-21T09:35:23.297Z,967.32
2019-01-21T09:36:23.272Z,967.33
2019-01-21T09:37:23.258Z,967.33
2019-01-21T09:38:23.269Z,967.39
2019-01-21T09:39:23.284Z,967.39
2019-01-21T09:40:23.255Z,967.39
2019-01-21T09:41:23.243Z,967.36
2019-01-21T09:42:23.206Z,967.41
2019-01-21T09:43:23.189Z,967.40
2019-01-21T09:44:23.245Z,967.39
2019-01-21T09:45:23.175Z,967.42
2019-01-21T09:46:23.156Z,967.40
2019-01-21T09:47:23.155Z,967.39
2019-01-21T09:48:23.196Z,967.43
2019-01-21T09:49:23.168Z,967.38
2019-01-21T09:50:23.144Z,967.40
2019-01-21T09:51:23.109Z,967.45
2019-01-21T09:52:23.136Z,967.38
2019-01-21T09:53:23.086Z,967.41
2019-01-21T09:54:23.075Z,967.41
2019-01-21T09:55:23.106Z,967.36
2019-01-21T09:56:23.071Z,967.37
2019-01-21T09:57:23.047Z,967.36
2019-01-21T09:58:23.118Z,967.34
2019-01-21T09:59:23.058Z,967.35
2019-01-21T10:00:23.065Z,967.35
2019-01-21T10:01:23.017Z,967.37
2019-01-21T10:02:22.999Z,967.30
2019-01-21T10:03:22.994Z,967.32
2019-01-21T10:04:22.962Z,967.29
2019-01-21T10:05:22.960Z,967.31
2019-01-21T10:06:22.953Z,967.32
2019-01-21T10:07:22.972Z,967.31
2019-01-21T10:08:22.939Z,967.23
2019-01-21T10:09:22.931Z,967.25
2019-01-21T10:10:22.893Z,967.26
2019-01-21T10:11:22.885Z,967.27
2019-01-21T10:12:22.899Z,967.25
2019-01-21T10:13:22.872Z,967.30
2019-01-21T10:14:22.876Z,967.29
2019-01-21T10:15:22.871Z,967.23
2019-01-21T10:16:22.859Z,967.18
2019-01-21T10:17:22.871Z,967.21
2019-01-21T10:18:22.880Z,967.21
2019-01-21T10:19:22.792Z,967.24
2019-01-21T10:20:22.838Z,967.16
2019-01-21T10:21:22.846Z,967.11
2019-01-21T10:22:22.762Z,967.18
2019-01-21T10:23:22.775Z,967.10
2019-01-21T10:24:22.771Z,967.15
2019-01-21T10:25:22.761Z,967.12
2019-01-21T10:26:22.781Z,967.10
2019-01-21T10:27:22.735Z,967.03
2019-01-21T10:28:22.735Z,967.04
2019-01-21T10:29:22.776Z,967.01
2019-01-21T10:30:22.721Z,967.05
2019-01-21T10:31:22.740Z,967.05
2019-01-21T10:32:22.665Z,966.98
2019-01-21T10:33:22.668Z,967.00
2019-01-21T10:34:23.756Z,966.97
2019-01-21T10:35:22.669Z,966.98
2019-01-21T10:36:22.757Z,967.04
2019-01-21T10:37:22.624Z,967.03
2019-01-21T10:38:22.621Z,966.98
2019-01-21T10:39:22.594Z,967.00
2019-01-21T10:40:22.573Z,967.01
2019-01-21T10:41:22.601Z,966.95
2019-01-21T10:42:22.558Z,966.99
2019-01-21T10:43:22.562Z,966.93
2019-01-21T10:44:22.578Z,966.91
2019-01-21T10:45:23.210Z,966.94
2019-01-21T10:46:22.513Z,966.97
2019-01-21T10:47:22.535Z,966.92
2019-01-21T10:48:22.500Z,966.95
2019-01-21T10:49:22.537Z,966.95
2019-01-21T10:50:22.478Z,966.96
2019-01-21T10:51:22.528Z,966.98
2019-01-21T10:52:22.522Z,966.94
2019-01-21T10:53:22.428Z,966.89
2019-01-21T10:54:22.452Z,966.92
2019-01-21T10:55:22.436Z,966.92
2019-01-21T10:56:22.449Z,966.91
2019-01-21T10:57:22.394Z,966.92
2019-01-21T10:58:22.372Z,966.94
2019-01-21T10:59:22.407Z,966.93
2019-01-21T11:00:22.353Z,966.89
2019-01-21T11:01:22.341Z,966.89
2019-01-21T11:02:22.347Z,966.89
2019-01-21T11:03:22.319Z,966.91
2019-01-21T11:04:22.305Z,966.89
2019-01-21T11:05:22.380Z,966.89
2019-01-21T11:06:22.315Z,966.88
2019-01-21T11:07:22.276Z,966.81
2019-01-21T11:08:22.270Z,966.82
2019-01-21T11:09:26.687Z,966.86
2019-01-21T11:10:22.247Z,966.80
2019-01-21T11:11:22.226Z,966.80
2019-01-21T11:12:22.255Z,966.81
2019-01-21T11:13:22.209Z,966.84
2019-01-21T11:14:22.194Z,966.76
2019-01-21T11:15:22.188Z,966.74
2019-01-21T11:16:22.183Z,966.72
2019-01-21T11:17:22.183Z,966.77
2019-01-21T11:18:22.182Z,966.79
2019-01-21T11:19:22.244Z,966.74
2019-01-21T11:20:22.131Z,966.75
2019-01-21T11:21:22.122Z,966.70
2019-01-21T11:22:22.121Z,966.77
2019-01-21T11:23:22.104Z,966.74
2019-01-21T11:24:22.111Z,966.74
2019-01-21T11:25:22.107Z,966.73
2019-01-21T11:26:22.063Z,966.70
2019-01-21T11:27:22.056Z,966.70
2019-01-21T11:28:22.054Z,966.70
2019-01-21T11:29:22.035Z,966.71
2019-01-21T11:30:22.054Z,966.69
2019-01-21T11:31:23.636Z,966.70
2019-01-21T11:32:22.000Z,966.65
2019-01-21T11:33:21.993Z,966.67
2019-01-21T11:34:21.989Z,966.72
2019-01-21T11:35:21.965Z,966.70
2019-01-21T11:36:21.960Z,966.70
2019-01-21T11:37:21.985Z,966.64
2019-01-21T11:38:21.948Z,966.66
2019-01-21T11:39:21.919Z,966.67
2019-01-21T11:40:21.921Z,966.69
2019-01-21T11:41:21.903Z,966.62
2019-01-21T11:42:21.940Z,966.57
2019-01-21T11:43:21.965Z,966.64
2019-01-21T11:44:21.886Z,966.66
2019-01-21T11:45:21.860Z,966.67
2019-01-21T11:46:21.862Z,966.64
2019-01-21T11:47:21.834Z,966.63
2019-01-21T11:48:21.825Z,966.64
2019-01-21T11:49:21.819Z,966.69
2019-01-21T11:50:21.823Z,966.67
2019-01-21T11:51:21.793Z,966.64
2019-01-21T11:52:21.779Z,966.65
2019-01-21T11:53:21.764Z,966.66
2019-01-21T11:54:21.763Z,966.64
2019-01-21T11:55:21.746Z,966.61
2019-01-21T11:56:21.766Z,966.61
2019-01-21T11:57:21.723Z,966.64
2019-01-21T11:58:21.710Z,966.60
2019-01-21T11:59:21.739Z,966.61
2019-01-21T12:00:21.692Z,966.65
2019-01-21T12:01:21.676Z,966.62
2019-01-21T12:02:21.700Z,966.63
2019-01-21T12:03:23.606Z,966.59
2019-01-21T12:04:21.647Z,966.61
2019-01-21T12:05:21.640Z,966.58
2019-01-21T12:06:21.621Z,966.59
2019-01-21T12:07:21.625Z,966.60
2019-01-21T12:08:21.634Z,966.57
2019-01-21T12:09:21.597Z,966.60
2019-01-21T12:10:21.589Z,966.57
2019-01-21T12:11:21.571Z,966.58
2019-01-21T12:12:21.555Z,966.57
2019-01-21T12:13:21.556Z,966.55
2019-01-21T12:14:21.570Z,966.53
2019-01-21T12:15:21.546Z,966.54
2019-01-21T12:16:21.527Z,966.51
2019-01-21T12:17:21.529Z,966.48
2019-01-21T12:18:21.496Z,966.46
2019-01-21T12:19:21.481Z,966.47
2019-01-21T12:20:21.479Z,966.45
2019-01-21T12:21:21.481Z,966.45
2019-01-21T12:22:21.461Z,966.44
2019-01-21T12:23:21.464Z,966.43
2019-01-21T12:24:21.440Z,966.43
2019-01-21T12:25:21.415Z,966.40
2019-01-21T12:26:21.457Z,966.43
2019-01-21T12:27:21.398Z,966.42
2019-01-21T12:28:21.391Z,966.37